sensor_id;sensor_type;location;lat;lon;timestamp;pressure;altitude;pressure_sealevel;temperature;humidity
16451;BME280;12243;42.708;23.310;2023-04-28T00:00:50;95244.25;;;6.55;64.59
16451;BME280;12243;42.708;23.310;2023-04-28T00:03:17;95241.50;;;6.44;65.03
16451;BME280;12243;42.708;23.310;2023-04-28T00:05:44;95255.28;;;6.44;64.63
16451;BME280;12243;42.708;23.310;2023-04-28T00:08:11;95244.84;;;6.46;64.44
16451;BME280;12243;42.708;23.310;2023-04-28T00:10:39;95245.03;;;6.43;65.64
16451;BME280;12243;42.708;23.310;2023-04-28T00:13:06;95249.56;;;6.39;65.34
16451;BME280;12243;42.708;23.310;2023-04-28T00:15:33;95252.16;;;6.39;64.96
16451;BME280;12243;42.708;23.310;2023-04-28T00:18:00;95245.81;;;6.31;65.45
16451;BME280;12243;42.708;23.310;2023-04-28T00:20:27;95243.38;;;6.42;65.63
16451;BME280;12243;42.708;23.310;2023-04-28T00:22:54;95251.72;;;6.33;65.33
16451;BME280;12243;42.708;23.310;2023-04-28T00:25:20;95244.91;;;6.32;65.47
16451;BME280;12243;42.708;23.310;2023-04-28T00:27:49;95246.22;;;6.25;65.61
16451;BME280;12243;42.708;23.310;2023-04-28T00:30:16;95251.56;;;6.22;65.47
16451;BME280;12243;42.708;23.310;2023-04-28T00:32:43;95258.22;;;6.26;64.98
16451;BME280;12243;42.708;23.310;2023-04-28T00:35:10;95260.53;;;6.16;65.86
16451;BME280;12243;42.708;23.310;2023-04-28T00:37:37;95258.59;;;6.05;65.94
16451;BME280;12243;42.708;23.310;2023-04-28T00:40:06;95260.06;;;6.09;66.60
16451;BME280;12243;42.708;23.310;2023-04-28T00:42:33;95263.75;;;6.19;66.03
16451;BME280;12243;42.708;23.310;2023-04-28T00:45:01;95258.72;;;6.04;66.84
16451;BME280;12243;42.708;23.310;2023-04-28T00:47:31;95267.28;;;5.90;67.52
16451;BME280;12243;42.708;23.310;2023-04-28T00:49:59;95265.34;;;6.08;66.00
16451;BME280;12243;42.708;23.310;2023-04-28T00:52:26;95260.56;;;6.02;65.97
16451;BME280;12243;42.708;23.310;2023-04-28T00:54:54;95259.53;;;6.04;66.54
16451;BME280;12243;42.708;23.310;2023-04-28T00:57:21;95265.28;;;5.95;65.98
16451;BME280;12243;42.708;23.310;2023-04-28T00:59:48;95264.13;;;5.85;66.87
16451;BME280;12243;42.708;23.310;2023-04-28T01:02:16;95270.25;;;5.69;67.74
16451;BME280;12243;42.708;23.310;2023-04-28T01:04:44;95271.72;;;5.73;67.38
16451;BME280;12243;42.708;23.310;2023-04-28T01:07:12;95270.88;;;5.73;67.30
16451;BME280;12243;42.708;23.310;2023-04-28T01:09:39;95266.38;;;5.77;67.86
16451;BME280;12243;42.708;23.310;2023-04-28T01:12:07;95267.53;;;5.85;66.42
16451;BME280;12243;42.708;23.310;2023-04-28T01:14:47;95267.84;;;5.81;67.54
16451;BME280;12243;42.708;23.310;2023-04-28T01:17:16;95270.97;;;5.71;67.67
16451;BME280;12243;42.708;23.310;2023-04-28T01:19:43;95270.44;;;5.66;67.72
16451;BME280;12243;42.708;23.310;2023-04-28T01:22:10;95273.38;;;5.74;67.78
16451;BME280;12243;42.708;23.310;2023-04-28T01:24:41;95273.94;;;5.80;66.82
16451;BME280;12243;42.708;23.310;2023-04-28T01:27:09;95289.81;;;5.59;67.13
16451;BME280;12243;42.708;23.310;2023-04-28T01:29:38;95276.25;;;5.70;67.00
16451;BME280;12243;42.708;23.310;2023-04-28T01:32:05;95278.53;;;5.60;67.40
16451;BME280;12243;42.708;23.310;2023-04-28T01:34:33;95280.13;;;5.63;67.31
16451;BME280;12243;42.708;23.310;2023-04-28T01:37:00;95275.31;;;5.57;67.98
16451;BME280;12243;42.708;23.310;2023-04-28T01:39:27;95279.66;;;5.56;68.04
16451;BME280;12243;42.708;23.310;2023-04-28T01:41:56;95282.34;;;5.55;68.26
16451;BME280;12243;42.708;23.310;2023-04-28T01:44:23;95285.91;;;5.52;68.98
16451;BME280;12243;42.708;23.310;2023-04-28T01:46:50;95279.94;;;5.52;67.97
16451;BME280;12243;42.708;23.310;2023-04-28T01:49:20;95282.34;;;5.55;68.91
16451;BME280;12243;42.708;23.310;2023-04-28T01:51:48;95281.88;;;5.48;68.07
16451;BME280;12243;42.708;23.310;2023-04-28T01:54:15;95280.75;;;5.38;68.83
16451;BME280;12243;42.708;23.310;2023-04-28T01:56:42;95285.91;;;5.38;68.38
16451;BME280;12243;42.708;23.310;2023-04-28T01:59:13;95270.59;;;5.35;69.01
16451;BME280;12243;42.708;23.310;2023-04-28T02:01:40;95278.88;;;5.40;68.46
16451;BME280;12243;42.708;23.310;2023-04-28T02:04:07;95278.88;;;5.40;69.08
16451;BME280;12243;42.708;23.310;2023-04-28T02:06:36;95278.41;;;5.33;69.00
16451;BME280;12243;42.708;23.310;2023-04-28T02:09:03;95283.97;;;5.27;69.51
16451;BME280;12243;42.708;23.310;2023-04-28T02:11:32;95284.03;;;5.25;69.56
16451;BME280;12243;42.708;23.310;2023-04-28T02:13:59;95283.97;;;5.27;69.20
16451;BME280;12243;42.708;23.310;2023-04-28T02:16:27;95279.97;;;5.21;69.67
16451;BME280;12243;42.708;23.310;2023-04-28T02:18:54;95286.22;;;5.17;70.28
16451;BME280;12243;42.708;23.310;2023-04-28T02:21:21;95279.97;;;5.21;68.89
16451;BME280;12243;42.708;23.310;2023-04-28T02:23:47;95295.91;;;5.14;69.37
16451;BME280;12243;42.708;23.310;2023-04-28T02:26:14;95297.00;;;5.10;70.10
16451;BME280;12243;42.708;23.310;2023-04-28T02:28:41;95294.66;;;5.05;69.76
16451;BME280;12243;42.708;23.310;2023-04-28T02:31:09;95299.84;;;5.05;69.73
16451;BME280;12243;42.708;23.310;2023-04-28T02:33:39;95303.63;;;4.99;69.91
16451;BME280;12243;42.708;23.310;2023-04-28T02:36:08;95303.34;;;5.04;70.20
16451;BME280;12243;42.708;23.310;2023-04-28T02:38:35;95297.53;;;5.00;69.65
16451;BME280;12243;42.708;23.310;2023-04-28T02:41:03;95302.19;;;4.94;70.06
16451;BME280;12243;42.708;23.310;2023-04-28T02:43:31;95303.03;;;4.94;70.25
16451;BME280;12243;42.708;23.310;2023-04-28T02:45:58;95307.38;;;4.94;70.02
16451;BME280;12243;42.708;23.310;2023-04-28T02:48:25;95316.03;;;4.93;71.02
16451;BME280;12243;42.708;23.310;2023-04-28T02:50:53;95313.72;;;4.88;70.70
16451;BME280;12243;42.708;23.310;2023-04-28T02:53:21;95315.44;;;4.88;71.35
16451;BME280;12243;42.708;23.310;2023-04-28T02:55:49;95314.88;;;4.83;71.41
16451;BME280;12243;42.708;23.310;2023-04-28T02:58:16;95316.19;;;4.90;70.71
16451;BME280;12243;42.708;23.310;2023-04-28T03:00:44;95321.88;;;4.81;70.96
16451;BME280;12243;42.708;23.310;2023-04-28T03:03:11;95319.72;;;4.89;70.68
16451;BME280;12243;42.708;23.310;2023-04-28T03:05:38;95322.13;;;4.92;71.06
16451;BME280;12243;42.708;23.310;2023-04-28T03:08:06;95327.69;;;4.84;71.43
16451;BME280;12243;42.708;23.310;2023-04-28T03:10:33;95328.28;;;4.89;71.25
16451;BME280;12243;42.708;23.310;2023-04-28T03:13:01;95333.34;;;4.91;71.10
16451;BME280;12243;42.708;23.310;2023-04-28T03:15:29;95330.59;;;4.94;70.75
16451;BME280;12243;42.708;23.310;2023-04-28T03:17:56;95330.03;;;4.89;70.92
16451;BME280;12243;42.708;23.310;2023-04-28T03:20:23;95336.44;;;4.82;70.65
16451;BME280;12243;42.708;23.310;2023-04-28T03:22:50;95337.00;;;4.87;70.52
16451;BME280;12243;42.708;23.310;2023-04-28T03:25:19;95339.97;;;4.95;70.79
16451;BME280;12243;42.708;23.310;2023-04-28T03:27:50;95344.31;;;4.94;69.76
16451;BME280;12243;42.708;23.310;2023-04-28T03:30:17;95351.06;;;4.97;70.14
16451;BME280;12243;42.708;23.310;2023-04-28T03:32:45;95357.97;;;4.96;70.66
16451;BME280;12243;42.708;23.310;2023-04-28T03:35:12;95358.81;;;4.97;69.83
16451;BME280;12243;42.708;23.310;2023-04-28T03:37:40;95362.22;;;4.97;69.61
16451;BME280;12243;42.708;23.310;2023-04-28T03:40:08;95365.47;;;5.01;69.65
16451;BME280;12243;42.708;23.310;2023-04-28T03:42:59;95370.88;;;4.96;69.65
16451;BME280;12243;42.708;23.310;2023-04-28T03:45:34;95367.81;;;4.90;70.09
16451;BME280;12243;42.708;23.310;2023-04-28T03:48:01;95377.47;;;4.86;70.19
16451;BME280;12243;42.708;23.310;2023-04-28T03:50:28;95372.63;;;4.96;70.62
16451;BME280;12243;42.708;23.310;2023-04-28T03:52:55;95380.59;;;5.07;70.14
16451;BME280;12243;42.708;23.310;2023-04-28T03:55:23;95384.34;;;5.17;69.65
16451;BME280;12243;42.708;23.310;2023-04-28T03:57:51;95388.84;;;5.14;69.63
16451;BME280;12243;42.708;23.310;2023-04-28T04:00:20;95384.28;;;5.33;68.60
16451;BME280;12243;42.708;23.310;2023-04-28T04:02:50;95394.63;;;5.63;67.65
16451;BME280;12243;42.708;23.310;2023-04-28T04:05:17;95394.16;;;6.01;66.79
16451;BME280;12243;42.708;23.310;2023-04-28T04:07:44;95389.72;;;6.46;65.97
16451;BME280;12243;42.708;23.310;2023-04-28T04:10:11;95397.22;;;6.92;64.43
16451;BME280;12243;42.708;23.310;2023-04-28T04:12:41;95398.81;;;7.34;62.85
16451;BME280;12243;42.708;23.310;2023-04-28T04:15:08;95390.19;;;7.74;61.53
16451;BME280;12243;42.708;23.310;2023-04-28T04:17:41;95393.22;;;8.19;60.30
16451;BME280;12243;42.708;23.310;2023-04-28T04:20:09;95399.97;;;8.59;57.70
16451;BME280;12243;42.708;23.310;2023-04-28T04:22:36;95406.47;;;8.78;55.80
16451;BME280;12243;42.708;23.310;2023-04-28T04:25:03;95405.50;;;8.92;56.23
16451;BME280;12243;42.708;23.310;2023-04-28T04:27:32;95413.00;;;8.96;53.40
16451;BME280;12243;42.708;23.310;2023-04-28T04:30:00;95409.53;;;8.59;53.40
16451;BME280;12243;42.708;23.310;2023-04-28T04:32:27;95409.25;;;8.13;54.47
16451;BME280;12243;42.708;23.310;2023-04-28T04:34:55;95415.56;;;8.34;55.54
16451;BME280;12243;42.708;23.310;2023-04-28T04:37:22;95412.84;;;8.61;53.96
16451;BME280;12243;42.708;23.310;2023-04-28T04:39:59;95412.81;;;8.74;53.65
16451;BME280;12243;42.708;23.310;2023-04-28T04:42:27;95412.06;;;8.97;52.60
16451;BME280;12243;42.708;23.310;2023-04-28T04:45:12;95422.78;;;9.17;52.15
16451;BME280;12243;42.708;23.310;2023-04-28T04:47:40;95421.56;;;9.34;52.10
16451;BME280;12243;42.708;23.310;2023-04-28T04:50:10;95422.59;;;9.55;50.64
16451;BME280;12243;42.708;23.310;2023-04-28T04:52:39;95427.50;;;9.36;50.70
16451;BME280;12243;42.708;23.310;2023-04-28T04:55:07;95426.94;;;9.43;50.87
16451;BME280;12243;42.708;23.310;2023-04-28T04:57:36;95431.56;;;9.27;50.47
16451;BME280;12243;42.708;23.310;2023-04-28T05:00:26;95438.22;;;9.07;51.81
16451;BME280;12243;42.708;23.310;2023-04-28T05:02:53;95432.69;;;9.12;51.75
16451;BME280;12243;42.708;23.310;2023-04-28T05:05:22;95435.13;;;9.26;51.49
16451;BME280;12243;42.708;23.310;2023-04-28T05:08:01;95439.66;;;9.11;51.20
16451;BME280;12243;42.708;23.310;2023-04-28T05:10:28;95442.16;;;9.37;51.38
16451;BME280;12243;42.708;23.310;2023-04-28T05:13:00;95447.84;;;9.66;50.60
16451;BME280;12243;42.708;23.310;2023-04-28T05:15:27;95433.56;;;10.18;50.04
16451;BME280;12243;42.708;23.310;2023-04-28T05:18:27;95441.47;;;10.40;48.10
16451;BME280;12243;42.708;23.310;2023-04-28T05:20:55;95445.97;;;10.14;48.79
16451;BME280;12243;42.708;23.310;2023-04-28T05:23:22;95440.84;;;10.25;48.41
16451;BME280;12243;42.708;23.310;2023-04-28T05:25:50;95440.19;;;10.57;48.00
16451;BME280;12243;42.708;23.310;2023-04-28T05:28:17;95440.03;;;10.59;47.93
16451;BME280;12243;42.708;23.310;2023-04-28T05:30:45;95437.56;;;10.46;48.99
16451;BME280;12243;42.708;23.310;2023-04-28T05:33:12;95447.03;;;10.36;49.57
16451;BME280;12243;42.708;23.310;2023-04-28T05:35:39;95443.53;;;10.24;49.53
16451;BME280;12243;42.708;23.310;2023-04-28T05:38:08;95438.84;;;10.29;49.50
16451;BME280;12243;42.708;23.310;2023-04-28T05:40:35;95438.25;;;10.59;48.99
16451;BME280;12243;42.708;23.310;2023-04-28T05:43:02;95437.47;;;10.81;48.69
16451;BME280;12243;42.708;23.310;2023-04-28T05:45:29;95429.06;;;10.78;48.23
16451;BME280;12243;42.708;23.310;2023-04-28T05:47:56;95430.34;;;10.83;48.17
16451;BME280;12243;42.708;23.310;2023-04-28T05:50:23;95432.69;;;11.09;47.67
16451;BME280;12243;42.708;23.310;2023-04-28T05:52:50;95435.91;;;10.90;47.94
16451;BME280;12243;42.708;23.310;2023-04-28T05:55:19;95436.72;;;10.45;48.84
16451;BME280;12243;42.708;23.310;2023-04-28T05:57:46;95436.47;;;10.48;49.27
16451;BME280;12243;42.708;23.310;2023-04-28T06:00:14;95449.03;;;10.66;49.20
16451;BME280;12243;42.708;23.310;2023-04-28T06:02:41;95449.03;;;10.66;48.08
16451;BME280;12243;42.708;23.310;2023-04-28T06:05:08;95446.44;;;11.00;48.83
16451;BME280;12243;42.708;23.310;2023-04-28T06:07:35;95448.63;;;11.38;47.06
16451;BME280;12243;42.708;23.310;2023-04-28T06:10:02;95445.94;;;11.17;47.75
16451;BME280;12243;42.708;23.310;2023-04-28T06:12:31;95441.03;;;11.35;47.28
16451;BME280;12243;42.708;23.310;2023-04-28T06:14:59;95441.06;;;11.67;46.75
16451;BME280;12243;42.708;23.310;2023-04-28T06:17:26;95442.47;;;11.71;46.10
16451;BME280;12243;42.708;23.310;2023-04-28T06:19:55;95442.16;;;11.97;44.88
16451;BME280;12243;42.708;23.310;2023-04-28T06:22:23;95447.03;;;11.58;44.78
16451;BME280;12243;42.708;23.310;2023-04-28T06:24:50;95442.75;;;11.13;46.12
16451;BME280;12243;42.708;23.310;2023-04-28T06:27:23;95447.00;;;11.69;46.00
16451;BME280;12243;42.708;23.310;2023-04-28T06:29:52;95448.06;;;12.61;43.98
16451;BME280;12243;42.708;23.310;2023-04-28T06:32:19;95442.88;;;12.71;43.14
16451;BME280;12243;42.708;23.310;2023-04-28T06:34:46;95447.25;;;12.40;43.72
16451;BME280;12243;42.708;23.310;2023-04-28T06:37:13;95443.97;;;12.69;42.90
16451;BME280;12243;42.708;23.310;2023-04-28T06:39:40;95437.94;;;12.47;43.60
16451;BME280;12243;42.708;23.310;2023-04-28T06:42:07;95441.75;;;12.64;43.74
16451;BME280;12243;42.708;23.310;2023-04-28T06:44:40;95442.50;;;12.24;43.29
16451;BME280;12243;42.708;23.310;2023-04-28T06:47:10;95435.56;;;12.13;43.13
16451;BME280;12243;42.708;23.310;2023-04-28T06:49:38;95437.88;;;12.37;44.14
16451;BME280;12243;42.708;23.310;2023-04-28T06:52:04;95434.50;;;12.47;43.85
16451;BME280;12243;42.708;23.310;2023-04-28T06:54:32;95435.34;;;12.47;43.74
16451;BME280;12243;42.708;23.310;2023-04-28T06:56:59;95441.78;;;12.01;44.97
16451;BME280;12243;42.708;23.310;2023-04-28T06:59:26;95432.38;;;12.10;43.96
16451;BME280;12243;42.708;23.310;2023-04-28T07:01:53;95439.94;;;12.34;43.16
16451;BME280;12243;42.708;23.310;2023-04-28T07:04:23;95440.81;;;12.23;43.19
16451;BME280;12243;42.708;23.310;2023-04-28T07:06:50;95428.88;;;12.51;43.17
16451;BME280;12243;42.708;23.310;2023-04-28T07:09:17;95438.25;;;12.84;42.41
16451;BME280;12243;42.708;23.310;2023-04-28T07:11:44;95433.69;;;12.77;40.69
16451;BME280;12243;42.708;23.310;2023-04-28T07:14:11;95428.06;;;12.81;41.60
16451;BME280;12243;42.708;23.310;2023-04-28T07:16:38;95430.47;;;12.63;41.64
16451;BME280;12243;42.708;23.310;2023-04-28T07:19:05;95429.75;;;12.92;41.26
16451;BME280;12243;42.708;23.310;2023-04-28T07:21:33;95425.66;;;12.69;41.28
16451;BME280;12243;42.708;23.310;2023-04-28T07:24:00;95427.91;;;12.73;41.10
16451;BME280;12243;42.708;23.310;2023-04-28T07:26:27;95421.63;;;12.85;39.53
16451;BME280;12243;42.708;23.310;2023-04-28T07:28:54;95423.63;;;13.13;40.82
16451;BME280;12243;42.708;23.310;2023-04-28T07:31:21;95416.31;;;13.66;39.53
16451;BME280;12243;42.708;23.310;2023-04-28T07:33:48;95425.81;;;13.87;38.21
16451;BME280;12243;42.708;23.310;2023-04-28T07:36:15;95428.09;;;13.31;37.72
16451;BME280;12243;42.708;23.310;2023-04-28T07:38:43;95426.50;;;13.09;37.69
16451;BME280;12243;42.708;23.310;2023-04-28T07:41:10;95422.31;;;13.28;37.58
16451;BME280;12243;42.708;23.310;2023-04-28T07:43:37;95423.22;;;13.17;38.31
16451;BME280;12243;42.708;23.310;2023-04-28T07:46:05;95424.91;;;13.18;38.31
16451;BME280;12243;42.708;23.310;2023-04-28T07:48:32;95425.50;;;13.41;37.09
16451;BME280;12243;42.708;23.310;2023-04-28T07:50:59;95418.63;;;13.59;36.95
16451;BME280;12243;42.708;23.310;2023-04-28T07:53:27;95419.22;;;13.82;36.09
16451;BME280;12243;42.708;23.310;2023-04-28T07:55:55;95418.63;;;14.08;35.48
16451;BME280;12243;42.708;23.310;2023-04-28T07:58:22;95422.38;;;13.86;35.91
16451;BME280;12243;42.708;23.310;2023-04-28T08:00:49;95420.56;;;13.28;37.30
16451;BME280;12243;42.708;23.310;2023-04-28T08:03:16;95425.63;;;13.30;36.90
16451;BME280;12243;42.708;23.310;2023-04-28T08:05:42;95417.31;;;13.15;36.54
16451;BME280;12243;42.708;23.310;2023-04-28T08:08:10;95421.66;;;13.36;36.79
16451;BME280;12243;42.708;23.310;2023-04-28T08:10:37;95422.38;;;13.76;36.10
16451;BME280;12243;42.708;23.310;2023-04-28T08:13:07;95419.72;;;14.15;35.37
16451;BME280;12243;42.708;23.310;2023-04-28T08:15:34;95421.50;;;14.44;34.99
16451;BME280;12243;42.708;23.310;2023-04-28T08:18:01;95416.63;;;14.68;35.36
16451;BME280;12243;42.708;23.310;2023-04-28T08:20:28;95409.59;;;14.96;34.68
16451;BME280;12243;42.708;23.310;2023-04-28T08:22:57;95420.34;;;15.31;34.07
16451;BME280;12243;42.708;23.310;2023-04-28T08:25:24;95418.16;;;15.44;34.03
16451;BME280;12243;42.708;23.310;2023-04-28T08:27:51;95405.25;;;15.33;33.75
16451;BME280;12243;42.708;23.310;2023-04-28T08:30:21;95407.75;;;15.34;33.58
16451;BME280;12243;42.708;23.310;2023-04-28T08:32:48;95405.94;;;15.35;34.03
16451;BME280;12243;42.708;23.310;2023-04-28T08:35:15;95410.56;;;15.23;34.04
16451;BME280;12243;42.708;23.310;2023-04-28T08:37:43;95409.63;;;15.42;33.31
16451;BME280;12243;42.708;23.310;2023-04-28T08:40:11;95416.22;;;15.28;33.95
16451;BME280;12243;42.708;23.310;2023-04-28T08:42:38;95409.97;;;15.01;33.97
16451;BME280;12243;42.708;23.310;2023-04-28T08:45:07;95413.41;;;14.74;34.00
16451;BME280;12243;42.708;23.310;2023-04-28T08:47:37;95405.91;;;14.42;34.42
16451;BME280;12243;42.708;23.310;2023-04-28T08:50:06;95408.00;;;14.86;34.45
16451;BME280;12243;42.708;23.310;2023-04-28T08:52:34;95397.34;;;15.15;33.39
16451;BME280;12243;42.708;23.310;2023-04-28T08:55:05;95401.25;;;15.56;33.54
16451;BME280;12243;42.708;23.310;2023-04-28T08:57:35;95394.97;;;15.85;32.27
16451;BME280;12243;42.708;23.310;2023-04-28T09:00:04;95397.03;;;15.45;33.22
16451;BME280;12243;42.708;23.310;2023-04-28T09:02:31;95400.06;;;15.23;33.01
16451;BME280;12243;42.708;23.310;2023-04-28T09:04:59;95397.56;;;15.49;33.30
16451;BME280;12243;42.708;23.310;2023-04-28T09:07:26;95391.66;;;15.83;32.58
16451;BME280;12243;42.708;23.310;2023-04-28T09:10:14;95391.00;;;16.25;31.71
16451;BME280;12243;42.708;23.310;2023-04-28T09:12:41;95384.06;;;16.15;31.65
16451;BME280;12243;42.708;23.310;2023-04-28T09:15:09;95380.25;;;15.92;32.53
16451;BME280;12243;42.708;23.310;2023-04-28T09:17:46;95372.66;;;15.89;32.36
16451;BME280;12243;42.708;23.310;2023-04-28T09:20:19;95365.78;;;15.70;32.37
16451;BME280;12243;42.708;23.310;2023-04-28T09:22:47;95369.59;;;15.76;32.19
16451;BME280;12243;42.708;23.310;2023-04-28T09:25:15;95361.81;;;15.66;32.19
16451;BME280;12243;42.708;23.310;2023-04-28T09:27:42;95360.53;;;15.70;32.31
16451;BME280;12243;42.708;23.310;2023-04-28T09:30:10;95372.16;;;15.67;32.19
16451;BME280;12243;42.708;23.310;2023-04-28T09:32:37;95364.97;;;16.13;32.60
16451;BME280;12243;42.708;23.310;2023-04-28T09:35:04;95369.25;;;16.40;31.29
16451;BME280;12243;42.708;23.310;2023-04-28T09:37:33;95361.22;;;15.90;31.33
16451;BME280;12243;42.708;23.310;2023-04-28T09:40:06;95360.34;;;15.89;31.40
16451;BME280;12243;42.708;23.310;2023-04-28T09:42:35;95354.28;;;15.89;31.22
16451;BME280;12243;42.708;23.310;2023-04-28T09:45:03;95347.84;;;15.83;31.35
16451;BME280;12243;42.708;23.310;2023-04-28T09:47:31;95347.31;;;15.98;30.72
16451;BME280;12243;42.708;23.310;2023-04-28T09:50:01;95343.47;;;15.92;31.49
16451;BME280;12243;42.708;23.310;2023-04-28T09:52:28;95337.50;;;16.34;31.21
16451;BME280;12243;42.708;23.310;2023-04-28T09:54:56;95341.84;;;16.43;30.76
16451;BME280;12243;42.708;23.310;2023-04-28T09:57:24;95330.84;;;16.48;30.61
16451;BME280;12243;42.708;23.310;2023-04-28T09:59:52;95325.63;;;16.90;30.50
16451;BME280;12243;42.708;23.310;2023-04-28T10:02:20;95326.53;;;16.73;30.77
16451;BME280;12243;42.708;23.310;2023-04-28T10:04:48;95322.03;;;16.91;29.54
16451;BME280;12243;42.708;23.310;2023-04-28T10:07:17;95321.69;;;16.94;30.44
16451;BME280;12243;42.708;23.310;2023-04-28T10:09:45;95319.91;;;16.60;30.66
16451;BME280;12243;42.708;23.310;2023-04-28T10:12:16;95313.25;;;16.48;30.29
16451;BME280;12243;42.708;23.310;2023-04-28T10:14:44;95311.63;;;16.47;30.42
16451;BME280;12243;42.708;23.310;2023-04-28T10:17:12;95319.38;;;16.23;30.28
16451;BME280;12243;42.708;23.310;2023-04-28T10:19:40;95312.22;;;16.33;30.19
16451;BME280;12243;42.708;23.310;2023-04-28T10:22:29;95321.16;;;16.82;29.56
16451;BME280;12243;42.708;23.310;2023-04-28T10:25:16;95320.06;;;17.01;28.13
16451;BME280;12243;42.708;23.310;2023-04-28T10:27:51;95308.88;;;16.91;27.95
16451;BME280;12243;42.708;23.310;2023-04-28T10:30:22;95313.09;;;16.84;29.26
16451;BME280;12243;42.708;23.310;2023-04-28T10:33:23;95309.28;;;17.29;29.50
16451;BME280;12243;42.708;23.310;2023-04-28T10:35:53;95308.31;;;17.46;28.33
16451;BME280;12243;42.708;23.310;2023-04-28T10:38:20;95293.84;;;17.67;28.19
16451;BME280;12243;42.708;23.310;2023-04-28T10:40:48;95298.81;;;17.78;28.31
16451;BME280;12243;42.708;23.310;2023-04-28T10:43:37;95295.84;;;17.97;27.92
16451;BME280;12243;42.708;23.310;2023-04-28T10:46:06;95292.81;;;18.25;26.72
16451;BME280;12243;42.708;23.310;2023-04-28T10:48:55;95276.88;;;18.57;27.32
16451;BME280;12243;42.708;23.310;2023-04-28T10:51:27;95274.00;;;18.36;26.69
16451;BME280;12243;42.708;23.310;2023-04-28T10:57:17;95268.50;;;17.66;26.95
16451;BME280;12243;42.708;23.310;2023-04-28T10:59:47;95270.47;;;17.39;27.46
16451;BME280;12243;42.708;23.310;2023-04-28T11:02:47;95277.31;;;17.07;28.18
16451;BME280;12243;42.708;23.310;2023-04-28T11:05:15;95275.06;;;17.29;28.39
16451;BME280;12243;42.708;23.310;2023-04-28T11:11:17;95256.66;;;17.86;26.83
16451;BME280;12243;42.708;23.310;2023-04-28T11:13:45;95249.66;;;18.18;26.60
16451;BME280;12243;42.708;23.310;2023-04-28T11:16:19;95253.31;;;18.17;26.72
16451;BME280;12243;42.708;23.310;2023-04-28T11:18:57;95244.63;;;18.47;27.20
16451;BME280;12243;42.708;23.310;2023-04-28T11:21:28;95244.19;;;19.06;26.52
16451;BME280;12243;42.708;23.310;2023-04-28T11:23:56;95243.97;;;19.16;25.79
16451;BME280;12243;42.708;23.310;2023-04-28T11:26:23;95239.88;;;18.82;26.70
16451;BME280;12243;42.708;23.310;2023-04-28T11:28:52;95240.56;;;18.68;26.70
16451;BME280;12243;42.708;23.310;2023-04-28T11:31:21;95240.22;;;18.71;27.39
16451;BME280;12243;42.708;23.310;2023-04-28T11:33:55;95228.44;;;18.90;27.76
16451;BME280;12243;42.708;23.310;2023-04-28T11:36:27;95223.50;;;19.18;27.02
16451;BME280;12243;42.708;23.310;2023-04-28T11:38:55;95214.50;;;19.27;27.11
16451;BME280;12243;42.708;23.310;2023-04-28T11:41:22;95210.50;;;19.77;26.88
16451;BME280;12243;42.708;23.310;2023-04-28T11:43:50;95223.16;;;20.11;26.50
16451;BME280;12243;42.708;23.310;2023-04-28T11:46:20;95214.88;;;19.99;26.31
16451;BME280;12243;42.708;23.310;2023-04-28T11:48:47;95211.69;;;20.04;26.99
16451;BME280;12243;42.708;23.310;2023-04-28T11:51:35;95206.53;;;19.35;26.72
16451;BME280;12243;42.708;23.310;2023-04-28T11:54:04;95222.94;;;18.99;27.23
16451;BME280;12243;42.708;23.310;2023-04-28T11:56:36;95211.81;;;19.12;27.74
16451;BME280;12243;42.708;23.310;2023-04-28T11:59:05;95197.06;;;19.79;26.92
16451;BME280;12243;42.708;23.310;2023-04-28T12:01:43;95206.84;;;20.37;26.67
16451;BME280;12243;42.708;23.310;2023-04-28T12:04:10;95206.97;;;20.80;26.19
16451;BME280;12243;42.708;23.310;2023-04-28T12:06:38;95210.22;;;20.31;26.53
16451;BME280;12243;42.708;23.310;2023-04-28T12:09:16;95206.63;;;19.65;27.28
16451;BME280;12243;42.708;23.310;2023-04-28T12:11:54;95201.75;;;20.06;27.00
16451;BME280;12243;42.708;23.310;2023-04-28T12:14:22;95197.81;;;20.32;26.54
16451;BME280;12243;42.708;23.310;2023-04-28T12:16:50;95190.16;;;20.37;26.55
16451;BME280;12243;42.708;23.310;2023-04-28T12:19:18;95188.78;;;20.56;26.00
16451;BME280;12243;42.708;23.310;2023-04-28T12:21:59;95177.69;;;20.82;25.83
16451;BME280;12243;42.708;23.310;2023-04-28T12:24:27;95180.34;;;21.03;25.99
16451;BME280;12243;42.708;23.310;2023-04-28T12:26:54;95183.69;;;21.12;25.48
16451;BME280;12243;42.708;23.310;2023-04-28T12:29:40;95172.28;;;20.54;25.65
16451;BME280;12243;42.708;23.310;2023-04-28T12:32:10;95182.06;;;20.09;26.56
16451;BME280;12243;42.708;23.310;2023-04-28T12:34:37;95176.22;;;19.98;26.31
16451;BME280;12243;42.708;23.310;2023-04-28T12:37:05;95165.84;;;20.12;27.11
16451;BME280;12243;42.708;23.310;2023-04-28T12:39:33;95166.81;;;20.40;26.38
16451;BME280;12243;42.708;23.310;2023-04-28T12:42:01;95158.94;;;20.47;26.41
16451;BME280;12243;42.708;23.310;2023-04-28T12:44:31;95155.84;;;20.43;26.28
16451;BME280;12243;42.708;23.310;2023-04-28T12:47:04;95161.34;;;20.27;26.54
16451;BME280;12243;42.708;23.310;2023-04-28T12:49:33;95161.16;;;20.14;26.64
16451;BME280;12243;42.708;23.310;2023-04-28T12:52:00;95160.25;;;20.51;26.32
16451;BME280;12243;42.708;23.310;2023-04-28T12:54:27;95151.88;;;20.69;25.36
16451;BME280;12243;42.708;23.310;2023-04-28T12:56:54;95153.91;;;20.88;25.71
16451;BME280;12243;42.708;23.310;2023-04-28T12:59:22;95147.09;;;21.22;25.26
16451;BME280;12243;42.708;23.310;2023-04-28T13:01:49;95145.56;;;21.56;24.85
16451;BME280;12243;42.708;23.310;2023-04-28T13:04:16;95140.16;;;21.71;25.07
16451;BME280;12243;42.708;23.310;2023-04-28T13:06:45;95138.97;;;20.44;26.51
16451;BME280;12243;42.708;23.310;2023-04-28T13:09:12;95136.31;;;20.59;25.87
16451;BME280;12243;42.708;23.310;2023-04-28T13:11:40;95126.44;;;20.89;25.97